KAR3478 VTSP-UUEE
Flight info
| Callsign | KAR3478 |
|---|---|
| Flight time | N/A |
| Altitude | 34000 |
| Route | UPSAB L515 OBMOG M770 MEPEL/N0492F360 M770 KAKID M875 GUGAL/N0488F380 M875 LEBIB A466 SAJAN M875 AMDAR/K0891F380 M875 MILSO DCT ARISA/K0891F400 L736 OLOPI |
| Aircraft | B772/H-SDE2E3FGHIJ5LORVWXY/LB1D1 |
Departure
| Time | N/A |
|---|---|
| Airport | Phuket International Airport (VTSP) |
Arrival
| Time | 2026-05-08 07:17 |
|---|---|
| Airport | Sheremetyevo International Airport (UUEE) |
| Time | Latitude | Longitude | Altitude | Speed | Heading |
|---|---|---|---|---|---|
| 2026-05-08 07:09 | 56.16945 | 37.63878 | 4769 ft | 246 kts | 133° |
| 2026-05-08 07:09 | 56.15747 | 37.66078 | 4658 ft | 246 kts | 134° |
| 2026-05-08 07:10 | 56.14597 | 37.68182 | 4544 ft | 244 kts | 134° |
| 2026-05-08 07:10 | 56.13440 | 37.70300 | 4427 ft | 238 kts | 134° |
| 2026-05-08 07:10 | 56.12280 | 37.72425 | 4314 ft | 233 kts | 134° |
| 2026-05-08 07:10 | 56.11160 | 37.74474 | 4230 ft | 227 kts | 134° |
| 2026-05-08 07:11 | 56.09980 | 37.76311 | 4070 ft | 225 kts | 153° |
| 2026-05-08 07:11 | 56.08489 | 37.76921 | 3939 ft | 219 kts | 185° |
| 2026-05-08 07:11 | 56.07017 | 37.76469 | 3856 ft | 212 kts | 198° |
| 2026-05-08 07:11 | 56.05607 | 37.75717 | 3776 ft | 208 kts | 200° |
| 2026-05-08 07:12 | 56.04238 | 37.74934 | 3696 ft | 207 kts | 200° |
| 2026-05-08 07:12 | 56.02876 | 37.74075 | 3606 ft | 205 kts | 213° |
| 2026-05-08 07:12 | 56.01788 | 37.72483 | 3523 ft | 196 kts | 240° |
| 2026-05-08 07:12 | 56.01329 | 37.70287 | 3342 ft | 176 kts | 261° |
| 2026-05-08 07:13 | 56.01074 | 37.68140 | 3171 ft | 173 kts | 261° |
| 2026-05-08 07:13 | 56.00780 | 37.66035 | 3017 ft | 171 kts | 259° |
| 2026-05-08 07:13 | 56.00478 | 37.63992 | 2808 ft | 167 kts | 259° |
| 2026-05-08 07:13 | 56.00198 | 37.62101 | 2622 ft | 148 kts | 260° |
| 2026-05-08 07:14 | 55.99943 | 37.60360 | 2446 ft | 140 kts | 260° |
| 2026-05-08 07:14 | 55.99699 | 37.58698 | 2273 ft | 136 kts | 260° |
| 2026-05-08 07:14 | 55.99472 | 37.57167 | 2110 ft | 135 kts | 260° |
| 2026-05-08 07:14 | 55.99294 | 37.55967 | 1980 ft | 135 kts | 260° |
| 2026-05-08 07:15 | 55.98889 | 37.53234 | 1679 ft | 134 kts | 260° |
| 2026-05-08 07:15 | 55.98693 | 37.51911 | 1531 ft | 134 kts | 260° |
| 2026-05-08 07:15 | 55.98652 | 37.51632 | 1499 ft | 134 kts | 260° |
| 2026-05-08 07:16 | 55.98502 | 37.50628 | 1387 ft | 133 kts | 260° |
| 2026-05-08 07:16 | 55.98292 | 37.49209 | 1232 ft | 134 kts | 261° |
| 2026-05-08 07:16 | 55.98032 | 37.47467 | 1036 ft | 134 kts | 260° |
| 2026-05-08 07:16 | 55.97793 | 37.45858 | 864 ft | 134 kts | 261° |
| 2026-05-08 07:17 | 55.97547 | 37.44222 | 695 ft | 134 kts | 260° |
| 2026-05-08 07:17 | 55.97337 | 37.42755 | 645 ft | 107 kts | 254° |
| 2026-05-08 07:17 | 55.97183 | 37.41745 | 644 ft | 64 kts | 256° |
| 2026-05-08 07:17 | 55.97104 | 37.41238 | 644 ft | 22 kts | 255° |
| 2026-05-08 07:18 | 55.97065 | 37.40967 | 644 ft | 22 kts | 256° |
| 2026-05-08 07:18 | 55.97024 | 37.40694 | 644 ft | 22 kts | 255° |
| 2026-05-08 07:18 | 55.96984 | 37.40422 | 644 ft | 23 kts | 256° |
| 2026-05-08 07:18 | 55.96955 | 37.40139 | 644 ft | 22 kts | 283° |
| 2026-05-08 07:19 | 55.97032 | 37.40024 | 644 ft | 2 kts | 346° |
| 2026-05-08 07:19 | 55.97058 | 37.40012 | 644 ft | 5 kts | 346° |
| 2026-05-08 07:19 | 55.97090 | 37.39996 | 644 ft | 7 kts | 346° |
| 2026-05-08 07:19 | 55.97137 | 37.39974 | 644 ft | 10 kts | 346° |
| 2026-05-08 07:20 | 55.97202 | 37.39943 | 644 ft | 14 kts | 345° |
| 2026-05-08 07:20 | 55.97303 | 37.39894 | 644 ft | 12 kts | 345° |
| 2026-05-08 07:20 | 55.97436 | 37.39828 | 644 ft | 18 kts | 344° |
| 2026-05-08 07:20 | 55.97553 | 37.39764 | 644 ft | 15 kts | 344° |
| 2026-05-08 07:21 | 55.97623 | 37.39902 | 644 ft | 18 kts | 76° |
| 2026-05-08 07:21 | 55.97653 | 37.40109 | 644 ft | 17 kts | 77° |
| 2026-05-08 07:21 | 55.97684 | 37.40310 | 644 ft | 9 kts | 76° |
| 2026-05-08 07:21 | 55.97706 | 37.40459 | 644 ft | 14 kts | 76° |
| 2026-05-08 07:22 | 55.97765 | 37.40548 | 644 ft | 12 kts | 350° |
| 2026-05-08 07:22 | 55.97801 | 37.40532 | 644 ft | 0 kts | 345° |